createdAt,value
2019-04-21T00:00:09.232Z,94.40
2019-04-21T00:02:39.763Z,93.40
2019-04-21T00:05:43.157Z,95.70
2019-04-21T00:07:59.142Z,94.60
2019-04-21T00:10:34.456Z,94.20
2019-04-21T00:12:56.217Z,95.30
2019-04-21T00:15:26.826Z,96.50
2019-04-21T00:17:51.777Z,97.60
2019-04-21T00:20:30.505Z,95.00
2019-04-21T00:23:06.251Z,94.00
2019-04-21T00:25:33.876Z,90.90
2019-04-21T00:28:21.741Z,92.70
2019-04-21T00:30:45.587Z,92.30
2019-04-21T00:33:05.201Z,91.80
2019-04-21T00:35:29.468Z,91.20
2019-04-21T00:38:17.122Z,89.70
2019-04-21T00:40:56.489Z,90.90
2019-04-21T00:43:19.697Z,94.90
2019-04-21T00:45:44.656Z,93.20
2019-04-21T00:48:30.445Z,90.60
2019-04-21T00:51:16.225Z,90.80
2019-04-21T00:53:40.100Z,90.00
2019-04-21T00:56:08.987Z,91.10
2019-04-21T00:58:39.313Z,92.70
2019-04-21T01:01:12.558Z,97.50
2019-04-21T01:03:43.529Z,97.90
2019-04-21T01:06:14.331Z,96.20
2019-04-21T01:08:42.782Z,94.70
2019-04-21T01:11:15.371Z,93.50
2019-04-21T01:13:45.429Z,93.20
2019-04-21T01:16:20.991Z,92.70
2019-04-21T01:18:45.955Z,93.40
2019-04-21T01:20:57.103Z,94.30
2019-04-21T01:23:27.548Z,97.10
2019-04-21T01:26:13.708Z,98.10
2019-04-21T01:28:52.318Z,97.90
2019-04-21T01:31:18.470Z,96.00
2019-04-21T01:33:56.223Z,96.00
2019-04-21T01:36:27.831Z,96.20
2019-04-21T01:39:02.155Z,97.20
2019-04-21T01:41:35.082Z,97.90
2019-04-21T01:43:54.538Z,98.50
2019-04-21T01:46:28.453Z,99.60
2019-04-21T01:48:57.019Z,98.40
2019-04-21T01:51:38.413Z,98.50
2019-04-21T01:54:18.457Z,99.40
2019-04-21T01:56:51.222Z,98.10
2019-04-21T01:59:12.783Z,97.30
2019-04-21T02:02:01.753Z,94.60
2019-04-21T02:04:36.562Z,95.50
2019-04-21T02:07:07.415Z,97.00
2019-04-21T02:09:35.635Z,97.30
2019-04-21T02:12:08.745Z,98.90
2019-04-21T02:14:46.278Z,99.70
2019-04-21T02:17:14.849Z,99.90
2019-04-21T02:19:36.072Z,99.90
2019-04-21T02:22:04.877Z,99.90
2019-04-21T02:24:49.678Z,99.40
2019-04-21T02:27:14.881Z,99.00
2019-04-21T02:29:47.119Z,97.20
2019-04-21T02:32:26.204Z,96.90
2019-04-21T02:34:59.952Z,98.00
2019-04-21T02:40:04.935Z,99.90
2019-04-21T02:42:41.854Z,99.90
2019-04-21T02:47:59.614Z,99.90
2019-04-21T02:50:13.404Z,99.90
2019-04-21T02:52:52.764Z,99.90
2019-04-21T02:55:11.759Z,99.90
2019-04-21T02:57:49.423Z,99.90
2019-04-21T03:00:29.030Z,99.90
2019-04-21T03:03:08.501Z,99.90
2019-04-21T03:05:48.868Z,99.90
2019-04-21T03:08:28.013Z,99.90
2019-04-21T03:10:56.752Z,99.90
2019-04-21T03:16:04.985Z,99.90
2019-04-21T03:18:34.083Z,99.90
2019-04-21T03:21:00.587Z,99.90
2019-04-21T03:23:31.844Z,99.90
2019-04-21T03:26:02.949Z,99.90
2019-04-21T03:28:45.737Z,99.90
2019-04-21T03:36:37.942Z,99.90
2019-04-21T03:38:37.522Z,99.90
2019-04-21T03:41:26.773Z,99.90
2019-04-21T03:43:44.563Z,99.90
2019-04-21T03:46:11.964Z,99.90
2019-04-21T03:48:47.152Z,99.90
2019-04-21T03:51:21.441Z,99.90
2019-04-21T03:53:42.956Z,99.90
2019-04-21T03:56:28.606Z,99.90
2019-04-21T04:01:37.085Z,99.90
2019-04-21T04:06:56.393Z,99.90
2019-04-21T04:11:51.340Z,99.90
2019-04-21T04:19:36.234Z,99.90
2019-04-21T04:22:09.249Z,99.90
2019-04-21T04:24:30.190Z,99.90
2019-04-21T04:31:57.039Z,99.90
2019-04-21T04:37:12.334Z,99.90
2019-04-21T04:45:01.451Z,99.90
2019-04-21T04:47:22.995Z,99.90
2019-04-21T04:55:12.037Z,99.90
2019-04-21T04:57:49.221Z,99.90
2019-04-21T05:00:22.005Z,99.90
2019-04-21T05:07:52.521Z,99.90
2019-04-21T05:10:17.597Z,99.90
2019-04-21T05:12:46.119Z,99.90
2019-04-21T05:15:12.625Z,99.90
2019-04-21T05:17:50.750Z,99.90
2019-04-21T05:22:42.694Z,99.90
2019-04-21T05:25:08.661Z,99.90
2019-04-21T05:27:45.283Z,99.90
2019-04-21T05:30:23.298Z,99.90
2019-04-21T05:32:53.608Z,99.90
2019-04-21T05:35:43.826Z,99.90
2019-04-21T05:38:17.184Z,99.90
2019-04-21T05:40:42.812Z,99.90
2019-04-21T05:43:21.574Z,99.90
2019-04-21T05:45:53.294Z,99.90
2019-04-21T05:48:31.627Z,99.90
2019-04-21T05:50:53.831Z,99.90
2019-04-21T05:56:03.376Z,99.90
2019-04-21T05:58:36.666Z,99.90
2019-04-21T06:01:15.140Z,99.90
2019-04-21T06:03:44.793Z,99.90
2019-04-21T06:06:15.106Z,99.90
2019-04-21T06:08:55.315Z,99.90
2019-04-21T06:11:14.833Z,99.90
2019-04-21T06:13:48.223Z,99.90
2019-04-21T06:16:14.213Z,99.90
2019-04-21T06:21:16.145Z,99.90
2019-04-21T06:23:47.958Z,99.90
2019-04-21T06:29:04.195Z,99.90
2019-04-21T06:31:42.604Z,99.90
2019-04-21T06:34:08.185Z,99.90
2019-04-21T06:36:39.651Z,99.90
2019-04-21T06:44:08.222Z,99.90
2019-04-21T06:46:35.015Z,99.90
2019-04-21T06:49:03.161Z,99.30
2019-04-21T06:51:37.155Z,99.30
2019-04-21T06:54:10.246Z,97.30
2019-04-21T06:56:47.972Z,95.10
2019-04-21T06:59:09.404Z,91.50
2019-04-21T07:01:54.930Z,85.20
2019-04-21T07:06:48.113Z,92.00
2019-04-21T07:11:43.961Z,70.30
2019-04-21T07:17:09.412Z,67.50
2019-04-21T07:19:30.594Z,73.50
2019-04-21T07:21:51.016Z,67.60
2019-04-21T07:24:26.298Z,71.50
2019-04-21T07:26:55.613Z,64.00
2019-04-21T07:29:27.177Z,64.20
2019-04-21T07:32:04.436Z,61.90
2019-04-21T07:34:33.260Z,59.30
2019-04-21T07:37:03.712Z,57.80
2019-04-21T07:39:27.132Z,58.60
2019-04-21T07:41:59.247Z,60.60
2019-04-21T07:44:29.812Z,55.10
2019-04-21T07:47:01.089Z,59.80
2019-04-21T07:49:40.152Z,59.10
2019-04-21T07:52:28.300Z,58.60
2019-04-21T07:55:12.620Z,55.40
2019-04-21T07:57:26.040Z,56.40
2019-04-21T08:00:16.445Z,55.80
2019-04-21T08:02:30.808Z,56.30
2019-04-21T08:05:12.975Z,57.70
2019-04-21T08:07:45.006Z,56.80
2019-04-21T08:10:07.852Z,52.40
2019-04-21T08:12:33.717Z,53.30
2019-04-21T08:15:15.532Z,53.90
2019-04-21T08:20:09.216Z,51.00
2019-04-21T08:22:46.782Z,52.20
2019-04-21T08:25:16.025Z,51.60
2019-04-21T08:27:47.714Z,55.30
2019-04-21T08:30:20.966Z,47.40
2019-04-21T08:33:02.315Z,44.40
2019-04-21T08:37:48.327Z,50.10
2019-04-21T08:42:55.177Z,47.70
2019-04-21T08:45:27.908Z,48.80
2019-04-21T08:48:00.963Z,50.60
2019-04-21T08:50:44.132Z,45.20
2019-04-21T08:53:03.955Z,48.90
2019-04-21T08:55:40.140Z,49.30
2019-04-21T08:58:22.662Z,44.10
2019-04-21T09:01:08.866Z,47.80
2019-04-21T09:09:01.647Z,46.50
2019-04-21T09:11:28.775Z,47.50
2019-04-21T09:14:05.206Z,49.10
2019-04-21T09:16:32.374Z,46.00
2019-04-21T09:18:56.977Z,46.30
2019-04-21T09:21:37.445Z,43.40
2019-04-21T09:24:04.582Z,43.70
2019-04-21T09:26:35.593Z,44.20
2019-04-21T09:29:00.384Z,47.60
2019-04-21T09:31:28.269Z,47.30
2019-04-21T09:33:57.009Z,47.60
2019-04-21T09:36:33.634Z,45.70
2019-04-21T09:39:03.454Z,46.40
2019-04-21T09:41:28.223Z,45.10
2019-04-21T09:43:59.701Z,43.50
2019-04-21T09:46:29.953Z,43.70
2019-04-21T09:49:05.468Z,45.50
2019-04-21T09:51:30.894Z,45.20
2019-04-21T09:54:05.789Z,44.90
2019-04-21T09:56:58.503Z,42.20
2019-04-21T09:59:28.148Z,40.80
2019-04-21T10:02:06.418Z,42.80
2019-04-21T10:04:26.636Z,42.70
2019-04-21T10:06:56.430Z,41.90
2019-04-21T10:09:26.406Z,36.80
2019-04-21T10:11:57.038Z,42.60
2019-04-21T10:14:26.789Z,41.80
2019-04-21T10:17:15.085Z,40.60
2019-04-21T10:19:46.256Z,39.80
2019-04-21T10:22:17.013Z,39.60
2019-04-21T10:24:46.822Z,42.80
2019-04-21T10:27:17.143Z,37.40
2019-04-21T10:29:48.588Z,39.80
2019-04-21T10:32:20.147Z,39.00
2019-04-21T10:34:49.678Z,39.00
2019-04-21T10:37:20.789Z,39.70
2019-04-21T10:39:51.550Z,37.70
2019-04-21T10:42:23.695Z,39.60
2019-04-21T10:44:54.977Z,39.80
2019-04-21T10:47:24.855Z,37.90
2019-04-21T10:49:54.932Z,39.50
2019-04-21T10:52:33.976Z,39.80
2019-04-21T10:55:17.625Z,40.70
2019-04-21T10:57:34.912Z,38.70
2019-04-21T11:00:09.134Z,40.20
2019-04-21T11:02:41.088Z,40.80
2019-04-21T11:05:12.420Z,43.00
2019-04-21T11:07:55.409Z,41.70
2019-04-21T11:10:16.170Z,43.90
2019-04-21T11:12:47.779Z,43.90
2019-04-21T11:15:18.950Z,44.40
2019-04-21T11:17:50.261Z,39.20
2019-04-21T11:20:20.178Z,37.50
2019-04-21T11:22:51.293Z,40.20
2019-04-21T11:25:22.032Z,37.50
2019-04-21T11:27:53.167Z,43.30
2019-04-21T11:30:23.360Z,39.10
2019-04-21T11:32:53.211Z,42.10
2019-04-21T11:35:23.453Z,41.80
2019-04-21T11:38:04.496Z,40.00
2019-04-21T11:40:25.521Z,35.40
2019-04-21T11:42:56.101Z,34.90
2019-04-21T11:45:34.787Z,35.90
2019-04-21T11:48:22.847Z,38.00
2019-04-21T11:50:55.067Z,39.60
2019-04-21T11:53:25.239Z,40.50
2019-04-21T11:55:55.571Z,38.80
2019-04-21T11:58:26.368Z,39.00
2019-04-21T12:01:03.333Z,38.00
2019-04-21T12:03:35.773Z,39.00
2019-04-21T12:06:05.848Z,39.60
2019-04-21T12:08:41.340Z,35.00
2019-04-21T12:11:07.355Z,35.30
2019-04-21T12:13:38.123Z,37.00
2019-04-21T12:16:08.394Z,33.80
2019-04-21T12:18:38.798Z,33.10
2019-04-21T12:21:09.379Z,33.70
2019-04-21T12:23:40.460Z,36.60
2019-04-21T12:26:10.353Z,34.00
2019-04-21T12:28:40.003Z,37.00
2019-04-21T12:31:11.672Z,39.90
2019-04-21T12:33:46.171Z,40.30
2019-04-21T12:36:15.908Z,41.00
2019-04-21T12:38:50.923Z,35.80
2019-04-21T12:41:18.280Z,37.70
2019-04-21T12:43:48.652Z,38.20
2019-04-21T12:46:18.332Z,38.50
2019-04-21T12:48:48.011Z,39.10
2019-04-21T12:51:17.674Z,38.30
2019-04-21T12:53:47.791Z,38.40
2019-04-21T12:56:17.725Z,36.50
2019-04-21T12:58:47.433Z,37.30
2019-04-21T13:01:17.129Z,36.70
2019-04-21T13:03:47.894Z,37.10
2019-04-21T13:06:17.706Z,38.70
2019-04-21T13:08:54.517Z,39.40
2019-04-21T13:11:19.233Z,37.60
2019-04-21T13:13:50.182Z,36.00
2019-04-21T13:16:21.154Z,37.30
2019-04-21T13:18:51.210Z,35.80
2019-04-21T13:21:22.319Z,35.20
2019-04-21T13:23:52.981Z,34.70
2019-04-21T13:26:32.801Z,33.70
2019-04-21T13:28:54.240Z,34.00
2019-04-21T13:31:24.556Z,34.40
2019-04-21T13:33:55.681Z,34.70
2019-04-21T13:36:25.711Z,34.50
2019-04-21T13:39:31.468Z,34.30
2019-04-21T13:41:42.004Z,33.80
2019-04-21T13:44:13.466Z,35.10
2019-04-21T13:46:45.100Z,34.90
2019-04-21T13:49:17.054Z,34.40
2019-04-21T13:51:48.025Z,34.40
2019-04-21T13:54:18.133Z,34.10
2019-04-21T13:56:47.741Z,34.80
2019-04-21T13:59:18.268Z,35.30
2019-04-21T14:01:48.071Z,34.80
2019-04-21T14:04:17.848Z,35.30
2019-04-21T14:06:48.027Z,37.40
2019-04-21T14:09:46.800Z,36.60
2019-04-21T14:12:09.572Z,35.30
2019-04-21T14:14:39.384Z,35.70
2019-04-21T14:17:09.079Z,38.10
2019-04-21T14:19:39.461Z,37.80
2019-04-21T14:22:11.584Z,38.30
2019-04-21T14:24:41.649Z,41.00
2019-04-21T14:27:12.158Z,38.30
2019-04-21T14:29:41.869Z,37.70
2019-04-21T14:32:11.498Z,37.80
2019-04-21T14:34:41.997Z,39.40
2019-04-21T14:37:13.049Z,38.70
2019-04-21T14:39:52.831Z,38.10
2019-04-21T14:42:14.175Z,41.10
2019-04-21T14:44:45.109Z,42.70
2019-04-21T14:47:23.089Z,43.30
2019-04-21T14:50:11.395Z,43.60
2019-04-21T14:52:41.519Z,41.90
2019-04-21T14:55:33.175Z,40.30
2019-04-21T14:58:03.308Z,42.00
2019-04-21T15:00:48.291Z,42.50
2019-04-21T15:03:19.256Z,40.30
2019-04-21T15:05:49.404Z,39.20
2019-04-21T15:08:19.396Z,41.20
2019-04-21T15:10:49.380Z,42.50
2019-04-21T15:13:19.576Z,42.00
2019-04-21T15:15:49.880Z,41.70
2019-04-21T15:18:20.945Z,41.30
2019-04-21T15:20:50.792Z,40.70
2019-04-21T15:23:23.031Z,40.80
2019-04-21T15:25:52.361Z,41.50
2019-04-21T15:28:22.085Z,42.50
2019-04-21T15:30:52.410Z,41.40
2019-04-21T15:33:22.394Z,42.60
2019-04-21T15:35:53.137Z,47.90
2019-04-21T15:38:22.856Z,47.20
2019-04-21T15:40:57.060Z,41.00
2019-04-21T15:43:24.496Z,43.10
2019-04-21T15:45:54.847Z,43.00
2019-04-21T15:48:44.732Z,43.20
2019-04-21T15:51:15.740Z,43.70
2019-04-21T15:53:47.873Z,42.20
2019-04-21T15:56:20.571Z,43.50
2019-04-21T15:58:58.925Z,44.50
2019-04-21T16:01:42.833Z,43.10
2019-04-21T16:04:32.657Z,43.80
2019-04-21T16:07:03.763Z,43.00
2019-04-21T16:09:35.891Z,43.90
2019-04-21T16:12:04.693Z,41.80
2019-04-21T16:14:34.545Z,40.70
2019-04-21T16:17:05.351Z,42.90
2019-04-21T16:19:36.348Z,42.00
2019-04-21T16:22:06.484Z,41.90
2019-04-21T16:24:37.669Z,40.30
2019-04-21T16:27:10.645Z,40.60
2019-04-21T16:29:39.523Z,40.00
2019-04-21T16:32:09.205Z,40.50
2019-04-21T16:34:47.127Z,41.10
2019-04-21T16:37:17.309Z,41.20
2019-04-21T16:39:47.470Z,40.40
2019-04-21T16:42:18.290Z,41.60
2019-04-21T16:44:49.188Z,42.20
2019-04-21T16:47:19.403Z,43.30
2019-04-21T16:49:49.882Z,43.20
2019-04-21T16:52:28.124Z,43.20
2019-04-21T16:55:06.507Z,43.50
2019-04-21T16:57:37.908Z,43.10
2019-04-21T17:00:13.846Z,44.50
2019-04-21T17:02:43.156Z,45.20
2019-04-21T17:05:14.333Z,43.70
2019-04-21T17:07:45.061Z,43.20
2019-04-21T17:10:15.157Z,41.80
2019-04-21T17:12:45.580Z,42.30
2019-04-21T17:15:32.487Z,43.20
2019-04-21T17:18:04.170Z,42.00
2019-04-21T17:20:32.292Z,42.10
2019-04-21T17:22:51.398Z,42.10
2019-04-21T17:25:24.914Z,42.10
2019-04-21T17:27:53.460Z,43.10
2019-04-21T17:30:24.461Z,44.50
2019-04-21T17:32:55.373Z,45.20
2019-04-21T17:35:25.317Z,44.30
2019-04-21T17:37:56.194Z,43.20
2019-04-21T17:40:29.470Z,44.00
2019-04-21T17:43:03.930Z,44.10
2019-04-21T17:45:31.065Z,42.50
2019-04-21T17:48:06.052Z,43.60
2019-04-21T17:50:34.115Z,43.40
2019-04-21T17:53:14.483Z,44.60
2019-04-21T17:56:05.020Z,43.50
2019-04-21T17:58:33.874Z,45.20
2019-04-21T18:03:53.538Z,43.70
2019-04-21T18:06:10.571Z,46.10
2019-04-21T18:08:47.848Z,45.90
2019-04-21T18:11:09.495Z,44.80
2019-04-21T18:13:30.648Z,44.70
2019-04-21T18:16:11.091Z,46.10
2019-04-21T18:18:32.946Z,45.80
2019-04-21T18:21:09.979Z,45.80
2019-04-21T18:23:52.052Z,44.30
2019-04-21T18:26:24.685Z,45.10
2019-04-21T18:28:44.487Z,44.80
2019-04-21T18:31:14.755Z,43.30
2019-04-21T18:33:47.863Z,43.20
2019-04-21T18:36:41.211Z,42.50
2019-04-21T18:39:32.545Z,42.60
2019-04-21T18:42:04.824Z,44.70
2019-04-21T18:44:48.494Z,47.00
2019-04-21T18:47:16.841Z,48.60
2019-04-21T18:49:33.316Z,45.50
2019-04-21T18:52:20.647Z,46.80
2019-04-21T18:54:58.226Z,43.90
2019-04-21T18:57:22.839Z,43.90
2019-04-21T18:59:47.661Z,46.80
2019-04-21T19:02:19.028Z,44.90
2019-04-21T19:04:48.439Z,45.90
2019-04-21T19:07:32.700Z,41.80
2019-04-21T19:13:03.608Z,43.10
2019-04-21T19:15:10.740Z,43.00
2019-04-21T19:22:41.692Z,40.30
2019-04-21T19:25:15.421Z,42.70
2019-04-21T19:27:48.792Z,41.50
2019-04-21T19:32:46.676Z,40.70
2019-04-21T19:35:05.509Z,41.00
2019-04-21T19:37:42.762Z,40.30
2019-04-21T19:40:22.127Z,40.20
2019-04-21T19:42:50.883Z,40.90
2019-04-21T19:45:25.512Z,39.30
2019-04-21T19:48:02.308Z,39.10
2019-04-21T19:50:35.266Z,39.30
2019-04-21T19:52:51.952Z,40.00
2019-04-21T19:55:16.103Z,39.00
2019-04-21T19:57:59.200Z,39.70
2019-04-21T20:00:28.829Z,39.80
2019-04-21T20:02:58.664Z,42.70
2019-04-21T20:05:38.451Z,41.30
2019-04-21T20:08:19.931Z,41.40
2019-04-21T20:10:50.233Z,40.70
2019-04-21T20:13:32.419Z,42.10
2019-04-21T20:15:52.392Z,40.90
2019-04-21T20:18:17.628Z,40.60
2019-04-21T20:20:37.302Z,40.90
2019-04-21T20:23:13.160Z,41.30
2019-04-21T20:25:43.800Z,40.10
2019-04-21T20:28:21.335Z,39.90
2019-04-21T20:31:03.828Z,39.80
2019-04-21T20:36:05.638Z,41.40
2019-04-21T20:38:28.298Z,41.30
2019-04-21T20:40:53.674Z,42.70
2019-04-21T20:43:36.513Z,45.10
2019-04-21T20:46:07.884Z,45.50
2019-04-21T20:48:31.909Z,44.00
2019-04-21T20:51:25.633Z,44.20
2019-04-21T20:53:36.083Z,44.20
2019-04-21T20:56:03.354Z,45.10
2019-04-21T20:58:40.894Z,45.80
2019-04-21T21:03:46.473Z,48.90
2019-04-21T21:06:14.445Z,50.20
2019-04-21T21:08:44.578Z,52.30
2019-04-21T21:11:15.498Z,51.60
2019-04-21T21:13:57.306Z,51.80
2019-04-21T21:19:04.967Z,55.60
2019-04-21T21:21:23.011Z,56.40
2019-04-21T21:23:53.067Z,57.50
2019-04-21T21:26:31.264Z,57.60
2019-04-21T21:28:54.239Z,58.70
2019-04-21T21:31:30.693Z,60.40
2019-04-21T21:34:06.302Z,59.30
2019-04-21T21:36:33.849Z,57.70
2019-04-21T21:39:09.141Z,53.00
2019-04-21T21:41:24.407Z,51.30
2019-04-21T21:43:58.032Z,48.10
2019-04-21T21:46:35.177Z,47.80
2019-04-21T21:49:03.128Z,48.20
2019-04-21T21:51:38.158Z,48.20
2019-04-21T21:53:54.744Z,48.10
2019-04-21T21:56:24.684Z,51.20
2019-04-21T21:58:55.249Z,56.50
2019-04-21T22:01:31.926Z,57.90
2019-04-21T22:04:07.241Z,62.20
2019-04-21T22:06:39.957Z,68.00
2019-04-21T22:09:00.736Z,72.60
2019-04-21T22:11:31.786Z,74.70
2019-04-21T22:14:05.691Z,73.20
2019-04-21T22:16:43.160Z,77.70
2019-04-21T22:19:19.004Z,74.00
2019-04-21T22:21:53.473Z,80.20
2019-04-21T22:24:20.334Z,83.40
2019-04-21T22:26:39.062Z,84.80
2019-04-21T22:29:09.690Z,87.10
2019-04-21T22:31:41.203Z,90.90
2019-04-21T22:34:13.187Z,91.90
2019-04-21T22:36:52.773Z,91.70
2019-04-21T22:39:28.282Z,92.80
2019-04-21T22:41:48.415Z,91.90
2019-04-21T22:44:20.319Z,92.10
2019-04-21T22:46:58.143Z,92.80
2019-04-21T22:49:23.605Z,93.80
2019-04-21T22:51:53.851Z,96.00
2019-04-21T22:54:29.940Z,97.70
2019-04-21T22:57:01.613Z,96.10
2019-04-21T22:59:28.616Z,98.10
2019-04-21T23:01:59.420Z,97.80
2019-04-21T23:04:36.827Z,98.00
2019-04-21T23:07:07.418Z,97.00
2019-04-21T23:09:32.937Z,95.00
2019-04-21T23:12:03.321Z,97.40
2019-04-21T23:14:45.259Z,98.00
2019-04-21T23:17:29.916Z,96.10
2019-04-21T23:19:55.637Z,97.10
2019-04-21T23:22:29.283Z,97.50
2019-04-21T23:24:57.376Z,97.20
2019-04-21T23:27:23.832Z,97.20
2019-04-21T23:30:08.429Z,96.20
2019-04-21T23:32:29.396Z,95.70
2019-04-21T23:34:45.946Z,95.70
2019-04-21T23:37:20.247Z,95.40
2019-04-21T23:39:47.726Z,95.70
2019-04-21T23:42:25.968Z,96.40
2019-04-21T23:44:52.946Z,94.30
2019-04-21T23:47:29.187Z,94.50
2019-04-21T23:50:00.255Z,96.70
2019-04-21T23:52:23.721Z,97.00
2019-04-21T23:54:53.582Z,97.10
2019-04-21T23:57:30.463Z,98.30
2019-04-21T23:59:57.369Z,99.80
